Walkerburn, United Kingdom
Current Conditions -  °F | °C
As of 9:20 PM on Wednesday 17 Dec 2014 (Local Time) from EGPH Reporting Station
Broken Clouds Broken Clouds  
Wind Chill:   Ceiling: 1600
Heat Index:   Visibility: 6mi
Dew Point:   Wind: 10mph
Humidity: 87%   Direction: 250°WSW
Pressure: 29.5"   Gusts: NA
Location:  55.62°N, 3.01°W
Report Text: EGPH 172120Z 25009KT 9999 BKN016 09/07 Q0999
Loading
Personal Weather Stations






























Interactive Weather Map New forecast layout! Learn more

10-Day Weather Forecast

Advertisements
Track Severe Weather on mobile